createdAt,value
2019-02-07T00:00:53.657Z,7.40
2019-02-07T00:04:00.921Z,8.15
2019-02-07T00:07:08.023Z,7.17
2019-02-07T00:10:16.161Z,9.75
2019-02-07T00:13:23.377Z,8.30
2019-02-07T00:16:30.812Z,9.10
2019-02-07T00:19:37.839Z,5.78
2019-02-07T00:22:45.319Z,7.92
2019-02-07T00:25:52.462Z,7.78
2019-02-07T00:28:59.818Z,8.03
2019-02-07T00:32:07.290Z,7.05
2019-02-07T00:35:14.991Z,7.40
2019-02-07T00:38:22.051Z,7.53
2019-02-07T00:41:29.177Z,7.85
2019-02-07T00:44:36.213Z,7.10
2019-02-07T00:47:43.342Z,7.85
2019-02-07T00:50:50.689Z,7.60
2019-02-07T00:53:57.777Z,6.97
2019-02-07T00:57:05.028Z,6.65
2019-02-07T01:00:15.994Z,7.72
2019-02-07T01:03:22.977Z,7.42
2019-02-07T01:06:30.253Z,8.70
2019-02-07T01:09:37.265Z,7.22
2019-02-07T01:12:50.243Z,7.90
2019-02-07T01:15:57.390Z,6.28
2019-02-07T01:19:04.466Z,6.20
2019-02-07T01:22:11.766Z,6.67
2019-02-07T01:25:20.779Z,7.60
2019-02-07T01:28:28.152Z,7.95
2019-02-07T01:31:35.955Z,7.62
2019-02-07T01:34:43.086Z,7.30
2019-02-07T01:37:50.420Z,5.47
2019-02-07T01:40:57.538Z,6.62
2019-02-07T01:44:04.846Z,5.75
2019-02-07T01:47:11.974Z,6.62
2019-02-07T01:50:20.727Z,8.48
2019-02-07T01:53:28.222Z,6.60
2019-02-07T01:56:35.277Z,6.03
2019-02-07T01:59:42.485Z,6.85
2019-02-07T02:02:50.602Z,5.67
2019-02-07T02:05:57.941Z,6.33
2019-02-07T02:09:08.105Z,6.33
2019-02-07T02:12:15.282Z,4.90
2019-02-07T02:15:25.253Z,5.33
2019-02-07T02:18:32.425Z,5.72
2019-02-07T02:21:39.794Z,7.72
2019-02-07T02:24:46.891Z,4.15
2019-02-07T02:27:54.316Z,6.95
2019-02-07T02:31:01.373Z,5.55
2019-02-07T02:34:08.773Z,5.90
2019-02-07T02:37:16.352Z,5.87
2019-02-07T02:40:23.544Z,5.83
2019-02-07T02:43:30.608Z,4.97
2019-02-07T02:46:37.924Z,5.28
2019-02-07T02:49:45.590Z,6.92
2019-02-07T02:52:52.818Z,6.35
2019-02-07T02:56:02.131Z,5.78
2019-02-07T02:59:09.381Z,5.55
2019-02-07T03:02:44.714Z,4.87
2019-02-07T03:06:12.104Z,5.37
2019-02-07T03:09:43.499Z,5.22
2019-02-07T03:13:08.715Z,5.78
2019-02-07T03:16:43.875Z,5.30
2019-02-07T03:20:12.376Z,5.65
2019-02-07T03:23:33.934Z,5.70
2019-02-07T03:27:05.527Z,6.28
2019-02-07T03:30:23.136Z,5.40
2019-02-07T03:33:37.228Z,6.62
2019-02-07T03:37:06.417Z,6.33
2019-02-07T03:40:30.793Z,5.00
2019-02-07T03:44:03.297Z,5.78
2019-02-07T03:47:27.424Z,5.05
2019-02-07T03:50:52.704Z,5.55
2019-02-07T03:54:18.027Z,6.30
2019-02-07T03:57:43.149Z,5.80
2019-02-07T04:01:08.087Z,5.85
2019-02-07T04:04:40.130Z,4.72
2019-02-07T04:08:22.072Z,5.10
2019-02-07T04:11:46.925Z,6.03
2019-02-07T04:15:04.218Z,5.28
2019-02-07T04:18:43.160Z,4.50
2019-02-07T04:22:06.291Z,5.40
2019-02-07T04:25:41.248Z,4.97
2019-02-07T04:29:04.723Z,4.35
2019-02-07T04:32:43.072Z,4.90
2019-02-07T04:36:18.271Z,5.03
2019-02-07T04:39:34.482Z,5.08
2019-02-07T04:43:15.942Z,4.97
2019-02-07T04:46:45.071Z,5.92
2019-02-07T04:50:13.249Z,4.65
2019-02-07T04:53:34.427Z,4.95
2019-02-07T04:57:06.490Z,6.10
2019-02-07T05:00:34.405Z,4.12
2019-02-07T05:04:00.413Z,4.03
2019-02-07T05:07:25.295Z,4.67
2019-02-07T05:10:51.467Z,4.20
2019-02-07T05:14:21.010Z,4.28
2019-02-07T05:17:45.805Z,4.78
2019-02-07T05:21:10.549Z,4.05
2019-02-07T05:24:35.454Z,4.10
2019-02-07T05:28:00.997Z,5.33
2019-02-07T05:31:17.929Z,4.97
2019-02-07T05:34:44.221Z,6.12
2019-02-07T05:38:25.445Z,4.50
2019-02-07T05:41:51.477Z,5.65
2019-02-07T05:45:15.741Z,4.65
2019-02-07T05:48:41.011Z,7.05
2019-02-07T05:52:25.458Z,6.20
2019-02-07T05:56:12.859Z,4.85
2019-02-07T05:59:47.760Z,5.90
2019-02-07T06:03:11.758Z,6.25
2019-02-07T06:06:46.651Z,5.47
2019-02-07T06:10:12.523Z,5.20
2019-02-07T06:13:41.919Z,6.85
2019-02-07T06:17:07.085Z,5.90
2019-02-07T06:20:48.560Z,4.72
2019-02-07T06:24:06.909Z,5.33
2019-02-07T06:27:35.884Z,6.25
2019-02-07T06:30:48.356Z,6.65
2019-02-07T06:34:13.493Z,5.92
2019-02-07T06:37:38.572Z,5.95
2019-02-07T06:40:57.650Z,6.72
2019-02-07T06:44:15.852Z,6.40
2019-02-07T06:47:54.956Z,6.12
2019-02-07T06:51:14.446Z,6.85
2019-02-07T06:54:39.849Z,5.80
2019-02-07T06:58:09.766Z,6.42
2019-02-07T07:01:51.148Z,5.83
2019-02-07T07:05:29.678Z,6.15
2019-02-07T07:09:05.018Z,6.33
2019-02-07T07:12:40.498Z,5.28
2019-02-07T07:16:13.791Z,7.78
2019-02-07T07:19:58.285Z,6.20
2019-02-07T07:23:23.959Z,5.92
2019-02-07T07:27:05.489Z,7.35
2019-02-07T07:30:51.697Z,6.17
2019-02-07T07:34:12.281Z,5.80
2019-02-07T07:37:44.173Z,6.15
2019-02-07T07:41:07.333Z,5.75
2019-02-07T07:44:41.479Z,5.67
2019-02-07T07:48:14.124Z,6.17
2019-02-07T07:51:43.122Z,6.20
2019-02-07T07:55:12.262Z,7.17
2019-02-07T07:58:28.066Z,6.45
2019-02-07T08:02:12.149Z,7.40
2019-02-07T08:05:38.087Z,7.25
2019-02-07T08:09:00.784Z,7.67
2019-02-07T08:12:15.793Z,6.78
2019-02-07T08:15:48.351Z,9.10
2019-02-07T08:19:14.322Z,8.30
2019-02-07T08:22:39.457Z,7.12
2019-02-07T08:26:04.325Z,8.63
2019-02-07T08:29:29.078Z,7.42
2019-02-07T08:32:53.706Z,7.47
2019-02-07T08:36:22.908Z,8.50
2019-02-07T08:39:50.332Z,8.58
2019-02-07T08:43:30.296Z,8.00
2019-02-07T08:46:49.036Z,7.25
2019-02-07T08:50:13.699Z,9.08
2019-02-07T08:53:30.945Z,7.05
2019-02-07T08:56:59.721Z,7.83
2019-02-07T09:00:31.797Z,6.92
2019-02-07T09:03:56.438Z,8.25
2019-02-07T09:07:26.491Z,6.50
2019-02-07T09:10:58.893Z,7.03
2019-02-07T09:14:24.272Z,7.60
2019-02-07T09:18:09.827Z,8.13
2019-02-07T09:21:43.269Z,8.83
2019-02-07T09:25:12.535Z,9.08
2019-02-07T09:28:38.475Z,8.43
2019-02-07T09:32:17.544Z,9.90
2019-02-07T09:35:48.657Z,7.37
2019-02-07T09:39:26.943Z,9.98
2019-02-07T09:42:49.012Z,9.58
2019-02-07T09:46:13.732Z,10.07
2019-02-07T09:49:38.670Z,8.53
2019-02-07T09:53:03.542Z,11.17
2019-02-07T09:56:32.544Z,8.07
2019-02-07T09:59:58.541Z,11.43
2019-02-07T10:03:24.746Z,10.17
2019-02-07T10:07:05.882Z,10.50
2019-02-07T10:10:25.402Z,10.73
2019-02-07T10:13:50.081Z,12.33
2019-02-07T10:17:15.019Z,12.98
2019-02-07T10:20:39.893Z,11.90
2019-02-07T10:24:04.589Z,10.15
2019-02-07T10:27:36.838Z,9.98
2019-02-07T10:31:06.066Z,12.70
2019-02-07T10:34:40.437Z,12.73
2019-02-07T10:38:04.925Z,11.57
2019-02-07T10:41:31.878Z,11.75
2019-02-07T10:44:55.930Z,11.93
2019-02-07T10:48:18.763Z,11.12
2019-02-07T10:51:43.621Z,12.70
2019-02-07T10:55:03.040Z,12.10
2019-02-07T10:58:29.378Z,12.53
2019-02-07T11:02:01.912Z,11.50
2019-02-07T11:05:27.093Z,11.33
2019-02-07T11:08:36.151Z,12.53
2019-02-07T11:12:00.980Z,11.68
2019-02-07T11:15:27.946Z,12.35
2019-02-07T11:18:55.734Z,13.55
2019-02-07T11:22:22.980Z,13.70
2019-02-07T11:25:47.448Z,11.60
2019-02-07T11:29:12.325Z,7.33
2019-02-07T11:32:50.629Z,11.28
2019-02-07T11:36:21.236Z,11.20
2019-02-07T11:39:56.561Z,9.65
2019-02-07T11:43:23.644Z,9.53
2019-02-07T11:46:52.039Z,11.97
2019-02-07T11:50:16.427Z,11.20
2019-02-07T11:53:48.906Z,11.40
2019-02-07T11:57:13.948Z,10.55
2019-02-07T12:00:43.642Z,11.18
2019-02-07T12:03:59.222Z,10.93
2019-02-07T12:07:30.091Z,10.72
2019-02-07T12:11:02.690Z,11.08
2019-02-07T12:14:53.740Z,10.70
2019-02-07T12:18:07.919Z,10.72
2019-02-07T12:21:46.176Z,11.08
2019-02-07T12:25:30.284Z,10.50
2019-02-07T12:28:58.842Z,10.28
2019-02-07T12:32:43.001Z,9.55
2019-02-07T12:36:18.061Z,9.70
2019-02-07T12:39:47.151Z,11.12
2019-02-07T12:43:12.491Z,10.72
2019-02-07T12:46:38.857Z,11.05
2019-02-07T12:50:04.030Z,9.23
2019-02-07T12:53:47.607Z,11.15
2019-02-07T12:57:15.424Z,12.03
2019-02-07T13:00:42.077Z,9.50
2019-02-07T13:04:10.424Z,11.38
2019-02-07T13:07:53.912Z,11.45
2019-02-07T13:11:38.380Z,10.63
2019-02-07T13:15:23.499Z,9.80
2019-02-07T13:19:00.550Z,10.38
2019-02-07T13:23:02.889Z,9.95
2019-02-07T13:30:21.859Z,10.23
2019-02-07T13:33:57.065Z,10.43
2019-02-07T13:37:38.437Z,11.03
2019-02-07T13:41:01.345Z,11.28
2019-02-07T13:44:36.800Z,9.90
2019-02-07T13:48:06.106Z,10.85
2019-02-07T13:51:50.701Z,11.40
2019-02-07T13:55:16.016Z,9.63
2019-02-07T13:58:38.707Z,10.85
2019-02-07T14:02:13.564Z,10.25
2019-02-07T14:05:52.585Z,10.43
2019-02-07T14:09:36.565Z,11.10
2019-02-07T14:13:01.441Z,10.60
2019-02-07T14:16:36.942Z,11.70
2019-02-07T14:20:03.362Z,10.68
2019-02-07T14:23:18.619Z,10.82
2019-02-07T14:27:00.063Z,11.93
2019-02-07T14:30:26.217Z,10.50
2019-02-07T14:33:52.603Z,10.03
2019-02-07T14:37:14.167Z,11.18
2019-02-07T14:40:39.366Z,11.57
2019-02-07T14:44:03.237Z,11.40
2019-02-07T14:47:10.298Z,12.40
2019-02-07T14:50:17.537Z,12.03
2019-02-07T14:53:25.170Z,10.90
2019-02-07T14:56:32.279Z,13.40
2019-02-07T14:59:39.721Z,10.35
2019-02-07T15:02:46.816Z,13.22
2019-02-07T15:05:53.952Z,11.55
2019-02-07T15:09:01.157Z,13.03
2019-02-07T15:12:08.532Z,11.45
2019-02-07T15:15:16.565Z,11.50
2019-02-07T15:18:23.962Z,11.45
2019-02-07T15:21:31.566Z,11.65
2019-02-07T15:24:38.887Z,9.58
2019-02-07T15:27:46.073Z,11.95
2019-02-07T15:30:53.227Z,10.90
2019-02-07T15:34:00.830Z,10.80
2019-02-07T15:37:08.167Z,12.63
2019-02-07T15:40:17.661Z,11.45
2019-02-07T15:43:25.234Z,11.97
2019-02-07T15:46:33.145Z,12.73
2019-02-07T15:49:40.384Z,10.20
2019-02-07T15:52:47.608Z,11.00
2019-02-07T15:55:54.909Z,12.53
2019-02-07T15:59:14.450Z,13.00
2019-02-07T16:02:28.117Z,12.03
2019-02-07T16:05:35.634Z,11.60
2019-02-07T16:08:42.659Z,12.60
2019-02-07T16:11:51.825Z,11.60
2019-02-07T16:14:58.846Z,9.10
2019-02-07T16:18:06.019Z,12.18
2019-02-07T16:21:13.052Z,10.85
2019-02-07T16:24:20.433Z,11.40
2019-02-07T16:27:27.713Z,10.75
2019-02-07T16:30:34.908Z,13.00
2019-02-07T16:33:42.334Z,12.82
2019-02-07T16:36:50.054Z,12.28
2019-02-07T16:39:58.508Z,12.70
2019-02-07T16:43:06.320Z,14.87
2019-02-07T16:46:32.918Z,11.00
2019-02-07T16:49:40.364Z,10.75
2019-02-07T16:52:53.106Z,13.50
2019-02-07T16:56:00.460Z,13.68
2019-02-07T16:59:07.442Z,13.00
2019-02-07T17:02:15.046Z,11.50
2019-02-07T17:05:24.393Z,12.98
2019-02-07T17:08:31.646Z,14.00
2019-02-07T17:11:39.100Z,12.65
2019-02-07T17:14:46.745Z,12.18
2019-02-07T17:17:54.893Z,13.72
2019-02-07T17:21:11.529Z,12.03
2019-02-07T17:24:11.101Z,11.93
2019-02-07T17:27:18.429Z,13.38
2019-02-07T17:30:26.097Z,12.37
2019-02-07T17:33:33.315Z,13.68
2019-02-07T17:36:40.566Z,12.85
2019-02-07T17:39:48.035Z,12.80
2019-02-07T17:42:55.639Z,12.65
2019-02-07T17:46:02.864Z,12.58
2019-02-07T17:49:13.234Z,12.95
2019-02-07T17:52:20.413Z,13.62
2019-02-07T17:55:29.242Z,13.60
2019-02-07T17:58:36.570Z,14.13
2019-02-07T18:01:44.497Z,11.57
2019-02-07T18:04:51.744Z,11.75
2019-02-07T18:07:59.958Z,11.18
2019-02-07T18:11:11.617Z,12.50
2019-02-07T18:14:37.871Z,12.98
2019-02-07T18:17:45.061Z,10.10
2019-02-07T18:20:52.245Z,13.00
2019-02-07T18:24:00.355Z,13.10
2019-02-07T18:27:07.785Z,11.40
2019-02-07T18:30:17.409Z,12.25
2019-02-07T18:33:24.933Z,13.43
2019-02-07T18:36:32.039Z,12.50
2019-02-07T18:39:39.438Z,10.30
2019-02-07T18:42:46.515Z,12.07
2019-02-07T18:45:53.754Z,13.38
2019-02-07T18:49:00.970Z,11.10
2019-02-07T18:52:08.305Z,12.78
2019-02-07T18:55:15.955Z,14.65
2019-02-07T18:58:22.977Z,12.50
2019-02-07T19:01:30.254Z,11.88
2019-02-07T19:04:38.567Z,12.98
2019-02-07T19:07:45.685Z,11.70
2019-02-07T19:11:11.852Z,11.10
2019-02-07T19:14:19.363Z,11.08
2019-02-07T19:17:26.734Z,12.30
2019-02-07T19:20:34.058Z,11.85
2019-02-07T19:23:41.295Z,11.48
2019-02-07T19:26:48.783Z,12.53
2019-02-07T19:30:17.821Z,13.22
2019-02-07T19:33:24.974Z,10.38
2019-02-07T19:36:32.088Z,12.65
2019-02-07T19:39:39.374Z,12.20
2019-02-07T19:42:46.995Z,12.65
2019-02-07T19:45:54.669Z,12.93
2019-02-07T19:49:01.760Z,9.83
2019-02-07T19:52:09.794Z,10.55
2019-02-07T19:55:19.742Z,11.25
2019-02-07T19:58:26.875Z,10.40
2019-02-07T20:01:34.069Z,10.93
2019-02-07T20:04:44.176Z,12.95
2019-02-07T20:07:51.826Z,11.68
2019-02-07T20:11:18.758Z,11.35
2019-02-07T20:14:26.976Z,10.63
2019-02-07T20:17:34.132Z,11.12
2019-02-07T20:20:41.981Z,11.00
2019-02-07T20:23:49.823Z,12.18
2019-02-07T20:26:57.681Z,12.43
2019-02-07T20:30:07.231Z,12.15
2019-02-07T20:33:14.827Z,11.28
2019-02-07T20:36:21.994Z,11.30
2019-02-07T20:39:29.335Z,12.55
2019-02-07T20:42:36.431Z,12.13
2019-02-07T20:45:43.678Z,11.10
2019-02-07T20:48:51.190Z,11.55
2019-02-07T20:51:58.339Z,11.55
2019-02-07T20:55:06.967Z,13.05
2019-02-07T20:58:14.774Z,12.00
2019-02-07T21:01:21.709Z,10.80
2019-02-07T21:04:29.358Z,11.88
2019-02-07T21:07:38.049Z,10.63
2019-02-07T21:10:45.323Z,10.72
2019-02-07T21:13:52.733Z,11.83
2019-02-07T21:16:59.828Z,11.53
2019-02-07T21:20:08.566Z,11.68
2019-02-07T21:23:16.762Z,12.85
2019-02-07T21:26:24.157Z,12.40
2019-02-07T21:29:31.587Z,10.55
2019-02-07T21:32:39.312Z,12.30
2019-02-07T21:35:47.068Z,10.03
2019-02-07T21:38:54.461Z,8.43
2019-02-07T21:42:01.628Z,11.33
2019-02-07T21:45:10.392Z,11.93
2019-02-07T21:48:21.750Z,10.85
2019-02-07T21:51:28.823Z,11.75
2019-02-07T21:54:35.912Z,10.20
2019-02-07T21:57:43.525Z,10.85
2019-02-07T22:00:50.911Z,12.28
2019-02-07T22:03:57.934Z,11.12
2019-02-07T22:07:04.941Z,13.13
2019-02-07T22:10:12.913Z,10.50
2019-02-07T22:13:19.999Z,12.03
2019-02-07T22:16:28.416Z,10.95
2019-02-07T22:19:35.785Z,11.05
2019-02-07T22:22:49.120Z,13.45
2019-02-07T22:25:52.770Z,10.32
2019-02-07T22:28:59.854Z,11.20
2019-02-07T22:32:07.665Z,12.47
2019-02-07T22:35:14.941Z,11.75
2019-02-07T22:38:22.175Z,10.58
2019-02-07T22:41:29.591Z,10.43
2019-02-07T22:44:36.580Z,10.98
2019-02-07T22:47:44.276Z,11.55
2019-02-07T22:50:52.511Z,10.68
2019-02-07T22:53:59.639Z,10.88
2019-02-07T22:57:06.657Z,10.15
2019-02-07T23:01:13.652Z,10.88
2019-02-07T23:04:22.486Z,10.05
2019-02-07T23:07:30.090Z,9.75
2019-02-07T23:10:37.879Z,10.08
2019-02-07T23:13:45.206Z,11.03
2019-02-07T23:16:52.872Z,11.07
2019-02-07T23:20:00.226Z,10.45
2019-02-07T23:23:09.291Z,10.97
2019-02-07T23:26:16.886Z,10.40
2019-02-07T23:29:24.848Z,10.40
2019-02-07T23:32:32.373Z,11.00
2019-02-07T23:35:39.660Z,9.53
2019-02-07T23:38:46.674Z,10.33
2019-02-07T23:41:53.720Z,9.87
2019-02-07T23:45:00.792Z,9.33
2019-02-07T23:48:08.001Z,9.77
2019-02-07T23:51:15.205Z,8.93
2019-02-07T23:54:22.403Z,10.80
2019-02-07T23:57:29.739Z,9.97
